Time;durP1;ratioP1;P1;durP2;ratioP2;P2;SDS_P1;SDS_P2;PMS_P1;PMS_P2;Temp;Humidity;BMP_temperature;BMP_pressure;BME280_temperature;BME280_humidity;BME280_pressure;Samples;Min_cycle;Max_cycle;Signal;HPM_P1;HPM_P2
2022/06/12 00:01:46;;;;;;;2.75;1.75;;;;;;;15.47;75.34;96360.47;5109314;27;20024;-64
2022/06/12 00:04:12;;;;;;;4.00;2.22;;;;;;;15.46;76.48;96356.13;5100612;27;20032;-64
2022/06/12 00:06:37;;;;;;;3.50;2.00;;;;;;;15.41;76.59;96350.47;5104218;27;20069;-64
2022/06/12 00:09:03;;;;;;;3.15;2.10;;;;;;;15.36;76.92;96346.63;5102329;27;20081;-64
2022/06/12 00:11:28;;;;;;;2.15;2.00;;;;;;;15.37;75.77;96349.13;5109022;27;20030;-64
2022/06/12 00:14:00;;;;;;;5.55;1.63;;;;;;;15.38;76.14;96345.50;5100307;27;20061;-64
2022/06/12 00:16:28;;;;;;;2.42;1.65;;;;;;;15.31;76.17;96345.28;5095331;27;20085;-64
2022/06/12 00:18:55;;;;;;;2.90;1.50;;;;;;;15.28;75.39;96340.28;5097147;27;20066;-63
2022/06/12 00:21:21;;;;;;;3.10;1.55;;;;;;;15.26;75.95;96341.41;5107610;27;20067;-63
2022/06/12 00:23:51;;;;;;;4.18;1.67;;;;;;;15.22;76.71;96330.28;5100366;27;20166;-64
2022/06/12 00:26:24;;;;;;;1.95;1.85;;;;;;;15.20;76.35;96326.94;5104894;27;20030;-64
2022/06/12 00:28:56;;;;;;;4.13;1.83;;;;;;;15.16;76.97;96321.13;5096857;28;20020;-64
2022/06/12 00:31:22;;;;;;;2.42;1.60;;;;;;;15.05;77.60;96318.72;5104274;27;20032;-64
2022/06/12 00:33:47;;;;;;;1.73;1.63;;;;;;;15.13;76.78;96317.97;5099381;27;20024;-64
2022/06/12 00:36:13;;;;;;;2.85;2.05;;;;;;;15.19;76.14;96330.59;5099453;27;20031;-63
2022/06/12 00:38:39;;;;;;;1.83;1.73;;;;;;;15.18;76.44;96324.47;5100092;27;20195;-65
2022/06/12 00:41:05;;;;;;;4.00;1.70;;;;;;;15.14;76.75;96327.56;5093564;27;20020;-64
2022/06/12 00:43:31;;;;;;;2.58;1.85;;;;;;;15.03;77.43;96326.84;5099549;27;20034;-64
2022/06/12 00:45:59;;;;;;;2.75;1.95;;;;;;;15.00;77.32;96321.00;5097788;27;20020;-64
2022/06/12 00:48:31;;;;;;;1.70;1.60;;;;;;;15.06;77.71;96328.34;5096650;27;20047;-63
2022/06/12 00:51:00;;;;;;;2.08;1.88;;;;;;;15.06;77.86;96328.34;5099700;27;20088;-66
2022/06/12 00:53:33;;;;;;;1.80;1.70;;;;;;;15.01;77.19;96338.59;5097207;27;20042;-67
2022/06/12 00:56:10;;;;;;;3.58;1.77;;;;;;;14.99;76.97;96322.00;5100575;27;20044;-67
2022/06/12 00:58:40;;;;;;;3.42;2.08;;;;;;;14.93;77.82;96322.63;5104471;28;20035;-67
2022/06/12 01:01:13;;;;;;;5.03;2.15;;;;;;;14.87;78.29;96316.94;5098376;28;20032;-67
2022/06/12 01:06:33;;;;;;;1.77;1.67;;;;;;;14.84;78.29;96316.44;5097260;27;20041;-67
2022/06/12 01:06:36;;;;;;;2.50;2.30;;;;;;;14.80;78.99;96318.53;5101111;27;20028;-67
2022/06/12 01:09:07;;;;;;;2.00;1.90;;;;;;;14.73;79.03;96318.31;5104570;28;20031;-66
2022/06/12 01:11:35;;;;;;;1.73;1.63;;;;;;;14.68;78.31;96312.63;5101427;27;20038;-66
2022/06/12 01:14:02;;;;;;;1.88;1.77;;;;;;;14.69;78.59;96313.44;5104135;27;20028;-71
2022/06/12 01:16:27;;;;;;;3.30;1.70;;;;;;;14.70;77.89;96317.75;5085705;27;20032;-70
2022/06/12 01:18:55;;;;;;;2.30;2.10;;;;;;;14.70;78.53;96318.59;5093659;27;20039;-71
2022/06/12 01:22:05;;;;;;;4.15;2.00;;;;;;;14.60;80.75;96318.66;5103339;27;20036;-70
2022/06/12 01:25:04;;;;;;;2.25;1.60;;;;;;;14.58;79.80;96322.44;5059614;28;20051;-70
2022/06/12 01:27:37;;;;;;;1.73;1.60;;;;;;;14.55;79.25;96328.91;5097860;28;20024;-70
2022/06/12 01:30:08;;;;;;;1.88;1.77;;;;;;;14.55;79.41;96322.75;5098972;27;20028;-66
2022/06/12 01:32:56;;;;;;;3.25;2.00;;;;;;;14.53;80.20;96330.88;5094285;27;20035;-62
2022/06/12 01:35:42;;;;;;;2.10;2.00;;;;;;;14.51;80.48;96332.00;5095158;28;20654;-62
2022/06/12 01:38:10;;;;;;;2.67;2.00;;;;;;;14.47;80.02;96328.78;5083698;28;20091;-62
2022/06/12 01:40:55;;;;;;;3.75;1.67;;;;;;;14.43;79.71;96336.22;5092352;28;20023;-62
2022/06/12 01:43:35;;;;;;;2.35;2.25;;;;;;;14.44;80.27;96339.69;5087527;28;20030;-61
2022/06/12 01:46:12;;;;;;;2.28;2.03;;;;;;;14.38;81.79;96335.84;5079471;28;20455;-61
2022/06/12 01:48:47;;;;;;;2.10;1.80;;;;;;;14.30;82.16;96344.53;5103571;27;20035;-73
2022/06/12 01:51:36;;;;;;;1.70;1.60;;;;;;;14.29;81.24;96334.94;5094478;28;20061;-65
2022/06/12 01:54:26;;;;;;;1.88;1.77;;;;;;;14.25;81.83;96341.50;5050644;28;20477;-64
2022/06/12 01:57:02;;;;;;;2.78;1.77;;;;;;;14.19;81.60;96334.16;5102036;28;20148;-64
2022/06/12 01:59:38;;;;;;;2.40;2.00;;;;;;;14.11;82.10;96334.06;5097681;28;20064;-64
2022/06/12 02:02:25;;;;;;;3.20;2.17;;;;;;;14.09;83.12;96328.09;5094469;28;20036;-64
2022/06/12 02:05:05;;;;;;;3.70;1.90;;;;;;;14.06;82.29;96323.91;5079151;28;20030;-64
2022/06/12 02:07:37;;;;;;;5.60;1.80;;;;;;;14.10;81.54;96325.28;5100925;28;20039;-67
2022/06/12 02:10:24;;;;;;;2.90;1.90;;;;;;;14.11;81.33;96318.19;5100808;28;20524;-64
2022/06/12 02:13:25;;;;;;;2.63;1.70;;;;;;;14.09;82.23;96330.75;5101425;27;20032;-72
2022/06/12 02:15:54;;;;;;;4.72;3.83;;;;;;;14.08;82.18;96321.94;5079183;27;20043;-72
2022/06/12 02:18:34;;;;;;;4.15;3.75;;;;;;;14.02;83.32;96318.06;5102479;27;20165;-72
2022/06/12 02:21:24;;;;;;;2.95;2.28;;;;;;;13.96;83.19;96323.16;5107299;27;20028;-72
2022/06/12 02:23:57;;;;;;;4.43;2.33;;;;;;;14.01;82.52;96312.94;5101711;27;20036;-72
2022/06/12 02:26:49;;;;;;;3.35;2.58;;;;;;;14.03;81.84;96314.44;5099745;27;20024;-66
2022/06/12 02:29:22;;;;;;;1.90;1.80;;;;;;;14.06;81.47;96312.50;5097960;27;20059;-68
2022/06/12 02:31:52;;;;;;;2.05;1.70;;;;;;;14.08;80.86;96311.34;5098941;28;20032;-62
2022/06/12 02:34:25;;;;;;;2.53;2.03;;;;;;;14.06;80.90;96312.50;5104044;27;20028;-62
2022/06/12 02:36:57;;;;;;;3.05;1.67;;;;;;;14.00;81.24;96312.09;5099094;28;20499;-62
2022/06/12 02:39:28;;;;;;;2.92;1.80;;;;;;;13.92;82.54;96319.09;5099527;27;20441;-61
2022/06/12 02:41:59;;;;;;;3.10;2.80;;;;;;;13.95;82.05;96335.53;5106536;27;20069;-62
2022/06/12 02:44:44;;;;;;;1.92;1.83;;;;;;;13.94;82.48;96333.06;5099812;27;20059;-62
2022/06/12 02:47:15;;;;;;;4.30;2.20;;;;;;;13.84;83.24;96330.44;5102576;27;20032;-71
2022/06/12 02:49:43;;;;;;;3.22;1.90;;;;;;;13.80;83.36;96323.75;5098586;27;20031;-61
2022/06/12 02:52:37;;;;;;;2.08;1.98;;;;;;;13.83;84.88;96331.44;5102968;27;20081;-62
2022/06/12 02:55:34;;;;;;;1.83;1.73;;;;;;;13.78;83.54;96329.22;5104210;27;20118;-62
2022/06/12 02:58:32;;;;;;;2.75;1.83;;;;;;;13.69;83.19;96323.00;5096166;27;20082;-61
2022/06/12 03:01:05;;;;;;;2.15;1.80;;;;;;;13.70;82.14;96323.81;5061629;28;20406;-61
2022/06/12 03:03:41;;;;;;;1.92;1.70;;;;;;;13.70;82.87;96318.50;5101427;27;20061;-62
2022/06/12 03:06:08;;;;;;;1.73;1.63;;;;;;;13.71;82.70;96317.56;5087591;28;20444;-64
2022/06/12 03:08:56;;;;;;;2.63;2.00;;;;;;;13.73;82.97;96327.00;5104548;27;20061;-64
2022/06/12 03:11:33;;;;;;;1.77;1.67;;;;;;;13.61;84.01;96320.25;5103142;27;20046;-64
2022/06/12 03:13:59;;;;;;;2.20;2.00;;;;;;;13.56;83.77;96327.75;5102225;27;20024;-64
2022/06/12 03:16:35;;;;;;;9.40;1.88;;;;;;;13.59;83.75;96330.13;5099699;27;20020;-64
2022/06/12 03:19:06;;;;;;;;;;;;;;;13.59;83.91;96327.47;5089617;28;20032;-64
2022/06/12 03:21:41;;;;;;;2.20;2.10;;;;;;;13.49;85.21;96329.31;5101363;27;19915;-64
2022/06/12 03:24:14;;;;;;;5.35;1.98;;;;;;;13.40;85.66;96328.34;5096011;27;20436;-67
2022/06/12 03:27:04;;;;;;;2.13;2.03;;;;;;;13.37;85.32;96329.47;5100108;27;20030;-64
2022/06/12 03:29:48;;;;;;;2.45;1.90;;;;;;;13.40;85.17;96328.34;5087201;27;20062;-66
2022/06/12 03:32:19;;;;;;;3.55;1.98;;;;;;;13.37;85.54;96324.16;5098593;27;20032;-66
2022/06/12 03:34:56;;;;;;;6.00;2.28;;;;;;;13.37;85.81;96318.88;5083996;28;20020;-66
2022/06/12 03:37:41;;;;;;;3.70;2.05;;;;;;;13.35;86.96;96312.91;5098689;27;20086;-66
2022/06/12 03:40:10;;;;;;;3.80;2.17;;;;;;;13.32;86.29;96308.75;5080820;28;20497;-67
2022/06/12 03:42:45;;;;;;;2.72;2.10;;;;;;;13.28;86.35;96315.31;5108866;27;20295;-66
2022/06/12 03:45:29;;;;;;;2.70;2.50;;;;;;;13.31;86.01;96315.03;5095116;27;20107;-62
2022/06/12 03:48:09;;;;;;;2.47;2.00;;;;;;;13.32;86.04;96314.03;5097236;27;20028;-62
2022/06/12 03:50:39;;;;;;;2.70;2.00;;;;;;;13.32;86.42;96314.03;5104076;27;20112;-61
2022/06/12 03:53:09;;;;;;;4.13;2.67;;;;;;;13.26;87.13;96311.97;5098845;27;20065;-60
2022/06/12 03:58:29;;;;;;;2.15;1.95;;;;;;;13.21;87.92;96308.09;5105979;27;20097;-61
2022/06/12 04:00:57;;;;;;;4.68;2.30;;;;;;;13.18;87.10;96307.41;5098021;27;20028;-60
2022/06/12 04:03:33;;;;;;;2.10;2.00;;;;;;;13.27;86.84;96310.16;5095221;27;20060;-61
2022/06/12 04:06:06;;;;;;;5.75;2.40;;;;;;;13.27;87.29;96313.66;5098073;27;20024;-61
2022/06/12 04:08:37;;;;;;;2.30;2.08;;;;;;;13.26;88.06;96303.19;5098446;27;20103;-61
2022/06/12 04:11:05;;;;;;;3.75;2.10;;;;;;;13.27;88.87;96308.34;5100471;27;20032;-61
2022/06/12 04:13:31;;;;;;;2.13;1.83;;;;;;;13.24;87.46;96313.09;5089839;27;20032;-62
2022/06/12 04:16:05;;;;;;;1.88;1.88;;;;;;;13.28;87.41;96312.66;5108517;28;20028;-61
2022/06/12 04:18:32;;;;;;;6.80;1.75;;;;;;;13.31;87.78;96315.03;5095341;27;20032;-61
2022/06/12 04:21:07;;;;;;;2.25;2.15;;;;;;;13.35;87.43;96314.72;5111133;27;20111;-62
2022/06/12 04:23:45;;;;;;;1.63;1.63;;;;;;;13.44;86.21;96324.47;5101483;27;20043;-61
2022/06/12 04:26:13;;;;;;;3.30;2.28;;;;;;;13.46;86.94;96322.50;5104577;27;20024;-61
2022/06/12 04:28:42;;;;;;;1.88;1.77;;;;;;;13.47;86.16;96324.16;5096096;27;20032;-61
2022/06/12 04:31:19;;;;;;;2.05;1.95;;;;;;;13.51;86.27;96332.66;5080647;28;20115;-61
2022/06/12 04:34:09;;;;;;;2.78;1.90;;;;;;;13.56;86.19;96338.34;5084850;27;20036;-61
2022/06/12 04:36:35;;;;;;;3.53;2.00;;;;;;;13.57;86.31;96340.84;5100708;27;20027;-61
2022/06/12 04:39:01;;;;;;;3.10;2.03;;;;;;;13.59;86.43;96335.41;5095640;27;20073;-60
2022/06/12 04:41:30;;;;;;;1.90;1.80;;;;;;;13.63;86.46;96344.75;5101829;27;20433;-67
2022/06/12 04:43:56;;;;;;;3.13;1.90;;;;;;;13.72;86.06;96345.69;5101218;27;20039;-71
2022/06/12 04:46:22;;;;;;;2.47;1.90;;;;;;;13.85;85.55;96345.34;5079909;28;20020;-71
2022/06/12 04:48:50;;;;;;;7.07;1.92;;;;;;;13.88;86.36;96345.06;5097151;27;20023;-71
2022/06/12 04:51:16;;;;;;;1.85;1.75;;;;;;;13.96;85.38;96349.63;5080850;27;20043;-71
2022/06/12 04:53:43;;;;;;;2.15;1.88;;;;;;;13.99;84.97;96355.44;5104659;27;20375;-71
2022/06/12 04:56:09;;;;;;;2.13;1.80;;;;;;;14.08;84.45;96359.00;5100618;27;20066;-70
2022/06/12 04:58:39;;;;;;;2.10;2.00;;;;;;;14.10;84.86;96362.34;5102102;27;20541;-71
2022/06/12 05:01:06;;;;;;;3.05;2.05;;;;;;;14.17;84.25;96362.59;5081076;28;20032;-66
2022/06/12 05:03:32;;;;;;;3.78;2.08;;;;;;;14.27;83.39;96366.03;5100202;28;20407;-62
2022/06/12 05:05:58;;;;;;;3.47;2.20;;;;;;;14.30;83.50;96359.59;5100369;27;20028;-62
2022/06/12 05:08:24;;;;;;;2.92;2.17;;;;;;;14.31;84.18;96363.91;5098753;28;20032;-62
2022/06/12 05:10:50;;;;;;;2.25;2.05;;;;;;;14.31;83.40;96363.91;5097626;28;20035;-62
2022/06/12 05:13:16;;;;;;;3.95;2.20;;;;;;;14.41;81.78;96371.78;5097477;27;20418;-62
2022/06/12 05:15:43;;;;;;;1.77;1.77;;;;;;;14.55;81.26;96365.13;5103762;27;20084;-62
2022/06/12 05:18:11;;;;;;;3.90;2.10;;;;;;;14.69;80.27;96374.38;5081385;28;20052;-64
2022/06/12 05:20:37;;;;;;;5.63;2.00;;;;;;;14.90;78.57;96363.53;5098009;28;20076;-66
2022/06/12 05:23:04;;;;;;;3.92;1.95;;;;;;;14.98;78.36;96363.56;5123255;22;20037;-76
2022/06/12 05:25:30;;;;;;;3.38;1.80;;;;;;;15.28;76.83;96377.41;5086637;28;20142;-75
2022/06/12 05:27:56;;;;;;;3.00;2.20;;;;;;;15.36;75.87;96368.66;5082941;28;22093;-75
2022/06/12 05:30:24;;;;;;;2.97;1.83;;;;;;;15.28;76.30;96366.81;5080228;28;20027;-75
2022/06/12 05:32:52;;;;;;;4.18;2.00;;;;;;;15.31;76.41;96373.59;5084152;28;20028;-74
2022/06/12 05:35:18;;;;;;;1.90;1.80;;;;;;;15.33;76.94;96367.16;5084708;28;20099;-74
2022/06/12 05:37:44;;;;;;;1.98;1.80;;;;;;;15.43;76.15;96363.56;5083742;28;20031;-74
2022/06/12 05:40:16;;;;;;;1.85;1.75;;;;;;;15.57;75.39;96368.31;5077581;28;20090;-74
2022/06/12 05:42:42;;;;;;;3.50;1.83;;;;;;;15.69;75.42;96357.41;5086540;28;20046;-75
2022/06/12 05:45:12;;;;;;;1.70;1.60;;;;;;;15.84;74.20;96361.16;5082028;28;20028;-74
2022/06/12 05:47:47;;;;;;;2.05;1.85;;;;;;;16.03;73.33;96344.19;5084756;28;20028;-75
2022/06/12 05:50:13;;;;;;;3.40;1.90;;;;;;;16.21;71.71;96345.88;5079914;28;20525;-74
2022/06/12 05:52:39;;;;;;;5.07;2.00;;;;;;;16.35;71.32;96346.25;5081164;28;20036;-74
2022/06/12 05:55:05;;;;;;;1.90;1.80;;;;;;;16.49;72.10;96343.00;5081484;28;20085;-74
2022/06/12 05:57:30;;;;;;;2.55;1.95;;;;;;;16.62;72.82;96331.88;5078539;28;20024;-74
2022/06/12 05:59:57;;;;;;;1.90;1.80;;;;;;;16.86;72.39;96332.88;5077656;28;20446;-74
2022/06/12 06:02:22;;;;;;;2.03;1.77;;;;;;;17.08;72.71;96341.22;5084764;28;20020;-73
2022/06/12 06:04:47;;;;;;;2.90;1.73;;;;;;;17.22;72.73;96347.72;5083656;28;20036;-73
2022/06/12 06:07:13;;;;;;;5.85;2.05;;;;;;;17.28;72.87;96347.88;5087090;28;20025;-73
2022/06/12 06:09:38;;;;;;;2.65;1.88;;;;;;;17.33;73.12;96342.03;5082143;28;20398;-73
2022/06/12 06:12:04;;;;;;;1.70;1.60;;;;;;;17.43;72.26;96340.03;5085762;28;20079;-73
2022/06/12 06:14:29;;;;;;;3.03;2.00;;;;;;;17.43;72.22;96337.38;5079645;28;20131;-73
2022/06/12 06:16:55;;;;;;;2.00;1.90;;;;;;;17.45;72.30;96338.03;5083514;28;20063;-73
2022/06/12 06:19:20;;;;;;;1.98;1.88;;;;;;;17.56;72.13;96338.66;5084429;28;20024;-72
2022/06/12 06:21:46;;;;;;;4.03;2.00;;;;;;;17.72;71.17;96341.28;5081745;28;20499;-73
2022/06/12 06:24:12;;;;;;;2.00;1.90;;;;;;;18.02;71.14;96344.22;5079240;28;20040;-73
2022/06/12 06:26:38;;;;;;;3.17;2.05;;;;;;;18.28;70.57;96351.09;5079949;28;20073;-72
2022/06/12 06:29:04;;;;;;;2.65;1.90;;;;;;;18.52;69.97;96351.97;5083504;28;20036;-72
2022/06/12 06:31:30;;;;;;;1.85;1.75;;;;;;;18.86;67.55;96355.25;5081817;28;20031;-77
2022/06/12 06:33:55;;;;;;;1.70;1.60;;;;;;;19.24;66.12;96354.47;5087189;28;20024;-73
2022/06/12 06:36:21;;;;;;;1.55;1.50;;;;;;;19.59;62.94;96347.63;5087268;28;20145;-70
2022/06/12 06:38:50;;;;;;;1.80;1.70;;;;;;;19.97;60.74;96344.06;5080706;28;20071;-69
2022/06/12 06:41:16;;;;;;;1.83;1.73;;;;;;;20.20;59.50;96348.44;5081149;28;20016;-69
2022/06/12 06:46:26;;;;;;;1.63;1.60;;;;;;;20.93;57.84;96349.50;5081924;28;20035;-70
2022/06/12 06:48:51;;;;;;;3.38;1.90;;;;;;;21.30;56.36;96344.84;5083859;28;20032;-70
2022/06/12 06:51:17;;;;;;;1.40;1.30;;;;;;;21.61;54.83;96338.28;5080941;28;20471;-70
2022/06/12 06:53:43;;;;;;;1.50;1.30;;;;;;;22.00;53.89;96344.94;5080046;28;20024;-70
2022/06/12 06:56:08;;;;;;;2.30;1.50;;;;;;;22.26;53.65;96359.50;5083551;28;20066;-70
2022/06/12 06:58:35;;;;;;;3.03;1.55;;;;;;;22.13;51.69;96359.44;5082180;28;20044;-73
2022/06/12 07:01:02;;;;;;;1.85;1.30;;;;;;;22.50;51.24;96360.03;5081969;28;20025;-68
2022/06/12 07:03:29;;;;;;;2.58;1.52;;;;;;;22.79;49.95;96363.41;5081205;28;20032;-70
2022/06/12 07:05:55;;;;;;;1.50;1.33;;;;;;;23.26;49.77;96362.66;5086556;28;20032;-66
2022/06/12 07:08:22;;;;;;;1.50;1.40;;;;;;;23.28;48.87;96355.22;5083012;28;20407;-71
2022/06/12 07:10:47;;;;;;;1.75;1.20;;;;;;;23.20;48.24;96363.47;5089269;28;20020;-70
2022/06/12 07:13:13;;;;;;;2.08;1.35;;;;;;;23.32;47.78;96351.94;5087467;28;20036;-69
2022/06/12 07:15:39;;;;;;;1.45;1.38;;;;;;;23.37;48.09;96359.38;5090904;28;20035;-71
2022/06/12 07:18:07;;;;;;;1.85;1.40;;;;;;;23.30;48.37;96347.78;5086938;28;20017;-68
2022/06/12 07:20:37;;;;;;;1.60;1.45;;;;;;;23.41;47.86;96349.88;5085064;28;20044;-69
2022/06/12 07:23:04;;;;;;;1.50;1.40;;;;;;;23.35;47.03;96349.84;5084129;28;20047;-70
2022/06/12 07:25:32;;;;;;;2.53;1.35;;;;;;;23.66;45.07;96357.28;5085604;28;20032;-72
2022/06/12 07:27:57;;;;;;;1.40;1.30;;;;;;;23.68;45.97;96363.25;5086664;28;20135;-73
2022/06/12 07:30:23;;;;;;;1.60;1.50;;;;;;;23.68;45.01;96355.19;5076344;28;20051;-70
2022/06/12 07:32:50;;;;;;;2.17;1.58;;;;;;;24.21;43.05;96358.00;5087206;28;20055;-69
2022/06/12 07:35:17;;;;;;;1.98;1.40;;;;;;;24.14;44.04;96358.88;5086710;28;20027;-69
2022/06/12 07:37:43;;;;;;;5.03;1.42;;;;;;;25.07;40.64;96361.31;5076898;28;20050;-69
2022/06/12 07:40:15;;;;;;;1.40;1.30;;;;;;;24.27;42.42;96362.53;5078872;28;20078;-65
2022/06/12 07:42:40;;;;;;;1.50;1.40;;;;;;;24.48;43.63;96363.28;5084575;28;20035;-65
2022/06/12 07:45:06;;;;;;;2.33;1.40;;;;;;;24.46;40.83;96356.25;5085268;28;20027;-66
2022/06/12 07:47:32;;;;;;;1.33;1.30;;;;;;;24.63;40.55;96360.28;5085572;28;20027;-66
2022/06/12 07:49:58;;;;;;;1.35;1.27;;;;;;;24.78;39.65;96354.69;5087323;28;20016;-67
2022/06/12 07:52:25;;;;;;;1.27;1.23;;;;;;;25.40;38.59;96359.41;5083935;28;20119;-68
2022/06/12 07:54:50;;;;;;;1.63;1.52;;;;;;;25.59;38.74;96357.63;5087348;28;20053;-66
2022/06/12 07:57:16;;;;;;;1.50;1.40;;;;;;;25.55;38.36;96361.81;5089427;28;20020;-65
2022/06/12 07:59:41;;;;;;;3.42;1.30;;;;;;;25.50;39.83;96361.63;5085576;28;20024;-65
2022/06/12 08:02:08;;;;;;;5.15;1.23;;;;;;;25.69;39.11;96360.63;5083522;28;20528;-66
2022/06/12 08:04:33;;;;;;;1.65;1.52;;;;;;;25.96;39.49;96356.84;5085628;28;20108;-67
2022/06/12 08:06:58;;;;;;;1.30;1.20;;;;;;;26.37;38.22;96365.34;5088178;28;20095;-66
2022/06/12 08:09:24;;;;;;;2.95;1.80;;;;;;;26.52;37.61;96360.38;5079605;28;20149;-67
2022/06/12 08:11:50;;;;;;;1.35;1.15;;;;;;;26.14;38.07;96358.72;5087897;28;20024;-67
2022/06/12 08:14:20;;;;;;;1.70;1.40;;;;;;;26.68;36.05;96361.63;5080050;28;20020;-67
2022/06/12 08:16:45;;;;;;;2.40;1.30;;;;;;;26.44;36.90;96358.00;5085649;28;20032;-66
2022/06/12 08:21:57;;;;;;;1.25;1.23;;;;;;;26.47;36.47;96354.84;5083896;28;20026;-66
2022/06/12 08:24:22;;;;;;;1.20;1.20;;;;;;;26.31;36.21;96351.69;5082748;28;20040;-67
2022/06/12 08:26:48;;;;;;;1.25;1.15;;;;;;;26.56;37.17;96358.06;5085475;28;20085;-66
2022/06/12 08:29:13;;;;;;;1.45;1.35;;;;;;;26.84;36.47;96346.63;5081393;28;20419;-66
2022/06/12 08:31:44;;;;;;;1.27;1.17;;;;;;;27.06;34.56;96348.03;5081730;28;20039;-68
2022/06/12 08:34:22;;;;;;;1.20;1.20;;;;;;;26.74;36.33;96338.28;5085886;28;20049;-66
2022/06/12 08:36:59;;;;;;;2.70;1.55;;;;;;;26.98;35.51;96339.22;5086180;28;20031;-67
2022/06/12 08:39:25;;;;;;;1.17;1.08;;;;;;;27.10;36.51;96327.59;5079311;28;20036;-66
2022/06/12 08:42:07;;;;;;;3.40;1.20;;;;;;;26.65;35.75;96329.66;5085814;28;20115;-67
2022/06/12 08:44:49;;;;;;;1.35;1.27;;;;;;;26.81;35.15;96335.50;5082024;28;20503;-65
2022/06/12 08:47:24;;;;;;;1.20;1.10;;;;;;;27.06;36.52;96329.94;5085729;28;20024;-65
2022/06/12 08:50:02;;;;;;;3.30;1.38;;;;;;;27.13;36.13;96337.94;5085043;28;20024;-64
2022/06/12 08:52:50;;;;;;;1.40;1.30;;;;;;;27.27;36.01;96333.13;5080763;28;20050;-66
2022/06/12 08:55:51;;;;;;;1.85;1.58;;;;;;;27.66;34.21;96325.44;5087330;28;20016;-65
2022/06/12 08:58:17;;;;;;;2.88;1.33;;;;;;;27.25;35.61;96329.84;5070625;28;20044;-66
2022/06/12 09:00:44;;;;;;;1.30;1.20;;;;;;;27.26;35.45;96317.97;5081277;28;20030;-67
2022/06/12 09:03:21;;;;;;;2.90;1.20;;;;;;;27.26;34.45;96320.69;5084722;28;20082;-68
2022/06/12 09:06:07;;;;;;;1.70;1.35;;;;;;;27.22;35.54;96316.81;5087263;28;20020;-64
2022/06/12 09:08:57;;;;;;;1.25;1.10;;;;;;;27.73;33.72;96318.03;5081120;28;20032;-65
2022/06/12 09:11:43;;;;;;;2.35;1.40;;;;;;;27.41;33.86;96307.53;5088520;28;20024;-65
2022/06/12 09:14:46;;;;;;;1.85;1.10;;;;;;;27.71;33.23;96316.63;5085812;28;20028;-66
2022/06/12 09:17:20;;;;;;;1.52;1.10;;;;;;;28.12;32.79;96312.09;5085752;28;20036;-64
2022/06/12 09:20:04;;;;;;;1.40;1.30;;;;;;;28.52;31.94;96296.13;5076484;28;20028;-65
2022/06/12 09:22:48;;;;;;;2.53;1.35;;;;;;;28.00;34.15;96298.59;5084315;28;20107;-65
2022/06/12 09:25:25;;;;;;;1.45;1.35;;;;;;;28.51;31.77;96298.00;5084905;28;20047;-66
2022/06/12 09:28:11;;;;;;;1.00;1.00;;;;;;;28.13;32.73;96305.63;5082937;28;20105;-66
2022/06/12 09:31:12;;;;;;;1.15;0.95;;;;;;;28.27;32.29;96294.53;5085620;28;20020;-66
2022/06/12 09:34:09;;;;;;;6.28;1.30;;;;;;;28.13;31.79;96292.09;5054079;28;20044;-65
2022/06/12 09:36:56;;;;;;;2.08;1.05;;;;;;;28.29;31.20;96287.84;5079513;28;20038;-65
2022/06/12 09:39:52;;;;;;;1.20;1.20;;;;;;;28.30;33.08;96286.78;5076869;28;20039;-65
2022/06/12 09:42:27;;;;;;;0.95;0.95;;;;;;;28.59;33.13;96284.03;5077454;28;20491;-65
2022/06/12 09:44:59;;;;;;;1.25;1.15;;;;;;;28.76;31.20;96283.25;5081821;28;20030;-64
2022/06/12 09:47:39;;;;;;;1.35;1.00;;;;;;;28.94;29.56;96284.16;5065515;28;20521;-67
2022/06/12 09:50:09;;;;;;;1.88;1.15;;;;;;;28.61;30.29;96281.09;5081622;28;20024;-65
2022/06/12 09:52:49;;;;;;;1.58;1.30;;;;;;;29.48;29.58;96274.69;5082821;28;20609;-67
2022/06/12 09:55:38;;;;;;;1.63;1.20;;;;;;;28.95;31.23;96269.53;5083006;28;20036;-65
2022/06/12 09:58:14;;;;;;;1.23;1.20;;;;;;;29.44;30.80;96267.06;5077521;28;20104;-67
2022/06/12 10:01:05;;;;;;;1.17;1.17;;;;;;;29.40;29.94;96268.59;5077873;28;20552;-67
2022/06/12 10:03:45;;;;;;;1.33;1.20;;;;;;;29.84;29.94;96259.75;5072858;28;20071;-66
2022/06/12 10:06:43;;;;;;;2.22;1.13;;;;;;;29.93;30.02;96256.59;5084548;28;20043;-66
2022/06/12 10:09:20;;;;;;;1.55;1.23;;;;;;;30.08;30.14;96255.97;5077561;28;20036;-67
2022/06/12 10:11:51;;;;;;;3.95;1.30;;;;;;;29.98;29.82;96253.94;5085779;28;20038;-67
2022/06/12 10:14:40;;;;;;;3.55;1.35;;;;;;;29.95;30.49;96255.25;5085909;28;20475;-66
2022/06/12 10:17:34;;;;;;;2.50;1.23;;;;;;;30.66;29.38;96266.41;5080507;28;20101;-67
2022/06/12 10:20:11;;;;;;;1.33;1.30;;;;;;;30.41;30.52;96257.72;5072380;28;20040;-66
2022/06/12 10:22:40;;;;;;;2.63;1.20;;;;;;;30.33;29.43;96260.06;5079635;28;20058;-66
2022/06/12 10:25:08;;;;;;;1.27;1.00;;;;;;;30.77;28.51;96254.56;5081901;28;20037;-67
2022/06/12 10:27:50;;;;;;;1.70;1.15;;;;;;;30.92;28.94;96255.78;5086085;28;20023;-67
2022/06/12 10:30:43;;;;;;;4.32;1.20;;;;;;;30.86;28.47;96263.06;5082799;28;20036;-67
2022/06/12 10:33:08;;;;;;;1.30;1.20;;;;;;;30.38;28.04;96246.53;5086444;28;20115;-67
2022/06/12 10:35:46;;;;;;;2.90;1.35;;;;;;;30.85;29.38;96245.94;5088696;28;20139;-68
2022/06/12 10:38:12;;;;;;;1.80;1.20;;;;;;;31.10;29.07;96241.78;5083210;28;20055;-66
2022/06/12 10:40:37;;;;;;;1.65;1.25;;;;;;;31.05;27.84;96244.44;5085975;28;20058;-66
2022/06/12 10:43:05;;;;;;;1.33;1.23;;;;;;;31.22;26.97;96243.53;5079941;28;20033;-67
2022/06/12 10:45:34;;;;;;;1.30;1.20;;;;;;;31.05;27.53;96240.94;5084576;28;20032;-66
2022/06/12 10:48:03;;;;;;;1.00;1.00;;;;;;;31.28;26.78;96237.88;5089881;28;20087;-67
2022/06/12 10:50:31;;;;;;;1.30;1.20;;;;;;;31.12;29.26;96234.19;5084768;28;20096;-67
2022/06/12 10:53:02;;;;;;;1.10;1.10;;;;;;;31.06;27.89;96234.41;5079590;28;20054;-66
2022/06/12 10:55:34;;;;;;;5.03;1.25;;;;;;;31.13;28.42;96229.56;5084556;28;20032;-67
2022/06/12 10:58:17;;;;;;;1.20;1.05;;;;;;;31.15;27.91;96227.41;5087270;28;20028;-66
2022/06/12 11:00:47;;;;;;;2.00;1.30;;;;;;;30.99;29.22;96219.16;5081357;28;20028;-67
2022/06/12 11:03:39;;;;;;;1.20;1.20;;;;;;;31.42;29.03;96219.19;5082395;28;20410;-67
2022/06/12 11:06:32;;;;;;;1.95;1.48;;;;;;;30.83;29.89;96215.47;5081650;28;20032;-67
2022/06/12 11:09:09;;;;;;;1.95;1.45;;;;;;;31.34;29.39;96216.97;5083238;28;20502;-67
2022/06/12 11:11:56;;;;;;;3.97;1.20;;;;;;;30.93;28.28;96214.72;5089685;28;20093;-67
2022/06/12 11:14:39;;;;;;;1.48;1.40;;;;;;;30.35;30.00;96214.47;5085223;28;20028;-67
2022/06/12 11:17:38;;;;;;;4.32;1.10;;;;;;;30.01;30.49;96208.16;5085815;28;20567;-67
2022/06/12 11:20:22;;;;;;;1.33;1.10;;;;;;;29.45;31.68;96205.53;5080957;28;20449;-67
2022/06/12 11:22:59;;;;;;;2.10;1.30;;;;;;;29.10;32.81;96207.44;5079997;28;20070;-67
2022/06/12 11:25:35;;;;;;;1.20;1.10;;;;;;;28.80;32.35;96203.19;5081323;28;20495;-67
2022/06/12 11:28:10;;;;;;;1.25;1.10;;;;;;;28.61;33.70;96199.88;5085594;28;20024;-66
2022/06/12 11:30:52;;;;;;;1.88;1.23;;;;;;;28.73;32.65;96200.59;5083453;28;20123;-66
2022/06/12 11:33:46;;;;;;;1.40;1.30;;;;;;;28.50;33.66;96198.88;5079865;28;20526;-67
2022/06/12 11:36:23;;;;;;;2.17;1.10;;;;;;;28.88;33.09;96197.38;5084460;28;20442;-66
2022/06/12 11:39:05;;;;;;;1.40;1.30;;;;;;;28.47;33.89;96193.94;5083491;28;20834;-66
2022/06/12 11:41:51;;;;;;;2.15;1.23;;;;;;;27.95;33.65;96190.25;5085928;28;20407;-67
2022/06/12 11:44:26;;;;;;;1.52;1.35;;;;;;;28.87;32.81;96182.19;5086427;28;20024;-66
2022/06/12 11:46:57;;;;;;;1.40;1.30;;;;;;;29.04;34.03;96186.75;5089200;28;20020;-66
2022/06/12 11:49:31;;;;;;;1.25;1.13;;;;;;;29.17;33.02;96191.81;5086989;28;20044;-66
2022/06/12 11:52:02;;;;;;;1.42;1.30;;;;;;;29.14;32.76;96183.38;5084307;28;20439;-66
2022/06/12 11:54:45;;;;;;;1.80;1.20;;;;;;;30.31;31.99;96187.03;5088810;28;20030;-67
2022/06/12 11:57:11;;;;;;;1.42;1.20;;;;;;;30.72;31.80;96184.69;5081403;28;20099;-66
2022/06/12 12:00:09;;;;;;;2.67;1.20;;;;;;;30.96;30.20;96187.06;5083802;28;20123;-67
2022/06/12 12:02:59;;;;;;;2.63;1.17;;;;;;;30.21;30.64;96187.75;5066447;28;20286;-67
2022/06/12 12:05:37;;;;;;;1.60;1.50;;;;;;;29.68;32.03;96190.91;5086855;28;20570;-67
2022/06/12 12:08:14;;;;;;;1.65;1.30;;;;;;;30.57;30.23;96189.97;5082083;28;20119;-66
2022/06/12 12:10:54;;;;;;;1.95;1.20;;;;;;;30.22;30.86;96183.09;5085538;28;20423;-66
2022/06/12 12:13:42;;;;;;;1.25;1.10;;;;;;;30.91;28.37;96181.56;5087881;28;20032;-63